Guaruja, Brazil
Current Conditions -  °F | °C
As of 8:00 PM on Tuesday 25 Nov 2014 (Local Time) from SBST Reporting Station
Light Rain Light Rain  
Wind Chill: 77°   Ceiling: 3000
Heat Index: 78°   Visibility: 1.2mi
Dew Point: 75°   Wind: 2mph
Humidity: 94%   Direction: 340°NNW
Pressure: 29.77"   Gusts: NA
Location:  24°S, 46.27°W
Report Text: SBST 252200Z 34002KT 2000 -RA BR BKN030 BKN070 25/24 Q1008
Loading
Personal Weather Stations






























Interactive Weather Map New forecast layout! Learn more

10-Day Weather Forecast

Advertisements
Track Severe Weather on mobile